createdAt,value
2022-08-17T00:02:26.590Z,97503.42
2022-08-17T00:04:55.402Z,97498.64
2022-08-17T00:07:22.997Z,97502.88
2022-08-17T00:09:50.615Z,97499.04
2022-08-17T00:12:42.870Z,97499.14
2022-08-17T00:15:10.617Z,97502.44
2022-08-17T00:17:38.382Z,97506.85
2022-08-17T00:20:06.552Z,97505.89
2022-08-17T00:25:13.304Z,97504.98
2022-08-17T00:27:40.752Z,97498.34
2022-08-17T00:30:09.725Z,97499.42
2022-08-17T00:33:12.354Z,97501.73
2022-08-17T00:35:28.175Z,97511.80
2022-08-17T00:37:55.816Z,97513.04
2022-08-17T00:40:24.601Z,97513.44
2022-08-17T00:42:53.629Z,97512.63
2022-08-17T00:45:21.159Z,97511.55
2022-08-17T00:47:49.864Z,97515.52
2022-08-17T00:50:18.531Z,97515.61
2022-08-17T00:52:54.989Z,97518.36
2022-08-17T00:55:23.687Z,97519.13
2022-08-17T00:57:55.427Z,97520.91
2022-08-17T01:00:33.164Z,97521.95
2022-08-17T01:03:21.993Z,97523.20
2022-08-17T01:05:50.081Z,97522.81
2022-08-17T01:08:19.884Z,97521.17
2022-08-17T01:10:59.779Z,97517.16
2022-08-17T01:13:41.889Z,97521.92
2022-08-17T01:16:29.789Z,97517.58
2022-08-17T01:19:05.581Z,97517.36
2022-08-17T01:21:50.480Z,97515.70
2022-08-17T01:24:17.868Z,97519.93
2022-08-17T01:26:45.493Z,97522.45
2022-08-17T01:29:12.978Z,97523.95
2022-08-17T01:31:46.071Z,97525.36
2022-08-17T01:34:14.420Z,97529.27
2022-08-17T01:36:43.315Z,97528.06
2022-08-17T01:39:16.711Z,97522.58
2022-08-17T01:41:43.957Z,97524.15
2022-08-17T01:44:11.109Z,97525.44
2022-08-17T01:46:38.706Z,97526.15
2022-08-17T01:49:07.204Z,97528.14
2022-08-17T01:51:34.731Z,97530.77
2022-08-17T01:54:05.748Z,97532.19
2022-08-17T01:56:34.434Z,97531.30
2022-08-17T01:59:01.707Z,97527.30
2022-08-17T02:01:30.808Z,97525.21
2022-08-17T02:04:00.786Z,97526.05
2022-08-17T02:06:30.651Z,97514.77
2022-08-17T02:09:02.448Z,97512.70
2022-08-17T02:11:34.982Z,97509.56
2022-08-17T02:14:02.702Z,97513.98
2022-08-17T02:16:37.931Z,97517.38
2022-08-17T02:19:07.640Z,97521.08
2022-08-17T02:21:36.104Z,97524.61
2022-08-17T02:24:03.813Z,97529.39
2022-08-17T02:26:31.974Z,97530.31
2022-08-17T02:28:59.227Z,97532.88
2022-08-17T02:31:26.377Z,97536.81
2022-08-17T02:34:04.049Z,97538.41
2022-08-17T02:36:35.466Z,97538.97
2022-08-17T02:39:04.463Z,97539.58
2022-08-17T02:41:31.768Z,97540.94
2022-08-17T02:43:59.123Z,97542.27
2022-08-17T02:46:26.613Z,97541.75
2022-08-17T02:48:53.835Z,97545.13
2022-08-17T02:51:21.005Z,97547.21
2022-08-17T02:53:48.541Z,97544.72
2022-08-17T02:56:15.793Z,97544.21
2022-08-17T02:58:43.045Z,97548.88
2022-08-17T03:01:10.781Z,97548.08
2022-08-17T03:03:38.394Z,97552.80
2022-08-17T03:06:06.542Z,97554.50
2022-08-17T03:08:34.104Z,97554.39
2022-08-17T03:11:01.359Z,97553.77
2022-08-17T03:13:28.614Z,97557.19
2022-08-17T03:15:55.882Z,97556.59
2022-08-17T03:18:25.387Z,97559.98
2022-08-17T03:20:59.584Z,97552.94
2022-08-17T03:23:27.480Z,97555.50
2022-08-17T03:25:54.826Z,97554.83
2022-08-17T03:28:22.769Z,97556.41
2022-08-17T03:30:51.434Z,97557.52
2022-08-17T03:33:19.217Z,97559.58
2022-08-17T03:35:46.673Z,97563.66
2022-08-17T03:38:15.355Z,97565.89
2022-08-17T03:40:57.602Z,97568.45
2022-08-17T03:43:28.708Z,97566.13
2022-08-17T03:46:28.143Z,97569.38
2022-08-17T03:49:25.574Z,97570.98
2022-08-17T03:52:12.903Z,97570.52
2022-08-17T03:54:59.299Z,97574.73
2022-08-17T03:57:26.546Z,97573.80
2022-08-17T03:59:54.512Z,97575.89
2022-08-17T04:02:27.859Z,97577.73
2022-08-17T04:04:55.271Z,97579.55
2022-08-17T04:07:25.492Z,97581.24
2022-08-17T04:09:52.748Z,97578.93
2022-08-17T04:12:21.225Z,97581.21
2022-08-17T04:14:53.465Z,97583.09
2022-08-17T04:17:27.193Z,97584.27
2022-08-17T04:19:54.455Z,97586.77
2022-08-17T04:22:30.666Z,97587.48
2022-08-17T04:25:06.147Z,97587.20
2022-08-17T04:27:33.647Z,97591.06
2022-08-17T04:30:01.378Z,97587.98
2022-08-17T04:33:03.551Z,97588.95
2022-08-17T04:35:21.274Z,97587.12
2022-08-17T04:37:48.528Z,97590.89
2022-08-17T04:40:35.242Z,97590.06
2022-08-17T04:43:18.807Z,97589.33
2022-08-17T04:45:55.342Z,97585.91
2022-08-17T04:48:36.690Z,97589.80
2022-08-17T04:51:07.523Z,97586.57
2022-08-17T04:53:34.728Z,97588.48
2022-08-17T04:56:01.957Z,97587.35
2022-08-17T04:58:29.231Z,97596.89
2022-08-17T05:00:56.514Z,97599.20
2022-08-17T05:03:23.728Z,97606.45
2022-08-17T05:05:51.825Z,97607.46
2022-08-17T05:08:20.984Z,97609.85
2022-08-17T05:10:48.660Z,97609.60
2022-08-17T05:13:26.243Z,97608.44
2022-08-17T05:15:55.798Z,97605.73
2022-08-17T05:18:24.605Z,97607.10
2022-08-17T05:20:52.605Z,97604.74
2022-08-17T05:23:20.814Z,97607.90
2022-08-17T05:25:51.753Z,97607.55
2022-08-17T05:28:24.122Z,97609.56
2022-08-17T05:30:54.515Z,97609.84
2022-08-17T05:33:27.094Z,97609.92
2022-08-17T05:35:56.630Z,97608.72
2022-08-17T05:38:29.887Z,97607.23
2022-08-17T05:40:58.471Z,97605.36
2022-08-17T05:43:33.655Z,97605.80
2022-08-17T05:46:16.365Z,97602.01
2022-08-17T05:48:48.594Z,97606.32
2022-08-17T05:51:34.173Z,97605.84
2022-08-17T05:54:50.807Z,97605.58
2022-08-17T05:57:53.188Z,97612.73
2022-08-17T06:00:31.243Z,97614.58
2022-08-17T06:03:16.216Z,97614.34
2022-08-17T06:05:46.663Z,97619.35
2022-08-17T06:08:31.017Z,97619.48
2022-08-17T06:11:19.921Z,97621.33
2022-08-17T06:14:05.660Z,97623.24
2022-08-17T06:16:41.545Z,97619.27
2022-08-17T06:19:39.792Z,97621.42
2022-08-17T06:22:07.678Z,97624.02
2022-08-17T06:25:14.032Z,97623.16
2022-08-17T06:27:57.464Z,97628.34
2022-08-17T06:30:35.750Z,97623.88
2022-08-17T06:33:22.684Z,97619.35
2022-08-17T06:36:02.859Z,97623.37
2022-08-17T06:39:04.946Z,97623.20
2022-08-17T06:41:49.769Z,97621.38
2022-08-17T06:44:49.900Z,97618.44
2022-08-17T06:47:38.548Z,97626.11
2022-08-17T06:50:20.849Z,97624.07
2022-08-17T06:52:55.422Z,97626.17
2022-08-17T06:55:38.231Z,97627.84
2022-08-17T06:58:15.745Z,97631.36
2022-08-17T07:00:46.463Z,97632.05
2022-08-17T07:03:44.698Z,97631.59
2022-08-17T07:06:21.990Z,97630.82
2022-08-17T07:09:05.366Z,97631.65
2022-08-17T07:11:42.576Z,97632.86
2022-08-17T07:14:36.894Z,97632.69
2022-08-17T07:17:09.798Z,97635.50
2022-08-17T07:19:41.982Z,97636.64
2022-08-17T07:25:41.305Z,97639.36
2022-08-17T07:28:13.808Z,97641.34
2022-08-17T07:31:00.784Z,97643.09
2022-08-17T07:37:22.032Z,97643.40
2022-08-17T07:40:15.568Z,97642.02
2022-08-17T07:42:41.867Z,97643.61
2022-08-17T07:45:32.183Z,97645.81
2022-08-17T07:48:18.112Z,97649.33
2022-08-17T07:50:49.593Z,97643.09
2022-08-17T07:53:25.477Z,97641.84
2022-08-17T07:55:54.368Z,97639.78
2022-08-17T07:58:23.753Z,97643.20
2022-08-17T08:01:13.524Z,97642.30
2022-08-17T08:03:43.382Z,97643.34
2022-08-17T08:06:23.373Z,97643.30
2022-08-17T08:08:52.721Z,97641.86
2022-08-17T08:11:40.128Z,97647.59
2022-08-17T08:14:34.225Z,97647.39
2022-08-17T08:17:03.977Z,97645.09
2022-08-17T08:19:33.254Z,97638.45
2022-08-17T08:22:14.874Z,97642.83
2022-08-17T08:24:58.170Z,97642.78
2022-08-17T08:27:38.971Z,97648.05
2022-08-17T08:30:10.399Z,97645.19
2022-08-17T08:33:11.267Z,97647.49
2022-08-17T08:36:56.938Z,97643.14
2022-08-17T08:39:16.370Z,97650.08
2022-08-17T08:45:20.095Z,97655.05
2022-08-17T08:51:10.548Z,97654.65
2022-08-17T08:53:50.525Z,97656.94
2022-08-17T08:56:36.915Z,97663.16
2022-08-17T08:59:16.452Z,97667.36
2022-08-17T09:01:49.171Z,97673.34
2022-08-17T09:05:10.393Z,97674.56
2022-08-17T09:11:28.088Z,97683.36
2022-08-17T09:14:21.798Z,97687.80
2022-08-17T09:17:14.376Z,97689.15
2022-08-17T09:19:53.955Z,97692.34
2022-08-17T09:22:25.930Z,97691.89
2022-08-17T09:25:07.258Z,97691.71
2022-08-17T09:27:47.829Z,97692.39
2022-08-17T09:30:16.038Z,97693.95
2022-08-17T09:32:45.734Z,97694.85
2022-08-17T09:35:32.775Z,97698.90
2022-08-17T09:38:36.539Z,97695.25
2022-08-17T09:41:23.862Z,97700.95
2022-08-17T09:43:55.307Z,97697.60
2022-08-17T09:46:25.642Z,97698.49
2022-08-17T09:49:32.837Z,97698.88
2022-08-17T09:52:14.134Z,97704.38
2022-08-17T09:54:50.751Z,97704.41
2022-08-17T09:57:39.941Z,97701.93
2022-08-17T10:00:46.960Z,97704.77
2022-08-17T10:03:28.831Z,97705.16
2022-08-17T10:06:25.226Z,97703.11
2022-08-17T10:09:07.564Z,97701.85
2022-08-17T10:12:17.872Z,97700.56
2022-08-17T10:15:08.117Z,97697.61
2022-08-17T10:18:21.929Z,97700.19
2022-08-17T10:21:21.143Z,97701.61
2022-08-17T10:24:10.634Z,97702.08
2022-08-17T10:26:55.335Z,97702.28
2022-08-17T10:29:30.978Z,97700.56
2022-08-17T10:32:48.222Z,97705.70
2022-08-17T10:35:43.615Z,97702.61
2022-08-17T10:38:32.361Z,97697.90
2022-08-17T10:41:18.233Z,97703.42
2022-08-17T10:44:38.660Z,97700.11
2022-08-17T10:47:18.464Z,97701.18
2022-08-17T10:49:49.747Z,97704.52
2022-08-17T10:52:20.182Z,97705.64
2022-08-17T10:54:48.979Z,97709.11
2022-08-17T10:57:29.833Z,97706.84
2022-08-17T10:59:57.912Z,97706.89
2022-08-17T11:02:38.975Z,97714.66
2022-08-17T11:05:16.355Z,97719.48
2022-08-17T11:07:46.456Z,97722.83
2022-08-17T11:10:33.061Z,97721.27
2022-08-17T11:13:22.125Z,97722.67
2022-08-17T11:16:08.474Z,97723.77
2022-08-17T11:19:14.584Z,97720.89
2022-08-17T11:21:52.896Z,97718.83
2022-08-17T11:24:32.680Z,97722.33
2022-08-17T11:27:30.109Z,97719.83
2022-08-17T11:30:08.300Z,97720.24
2022-08-17T11:32:47.492Z,97728.23
2022-08-17T11:35:21.357Z,97727.48
2022-08-17T11:38:03.260Z,97719.17
2022-08-17T11:40:46.778Z,97722.15
2022-08-17T11:43:49.469Z,97723.32
2022-08-17T11:46:55.279Z,97724.59
2022-08-17T11:50:01.890Z,97719.77
2022-08-17T11:52:39.846Z,97715.83
2022-08-17T11:55:34.701Z,97713.34
2022-08-17T11:58:36.188Z,97711.49
2022-08-17T12:01:29.713Z,97712.31
2022-08-17T12:04:19.309Z,97708.65
2022-08-17T12:06:52.731Z,97711.85
2022-08-17T12:09:22.641Z,97711.10
2022-08-17T12:12:13.817Z,97709.14
2022-08-17T12:15:11.535Z,97704.86
2022-08-17T12:17:42.605Z,97710.77
2022-08-17T12:20:28.114Z,97712.35
2022-08-17T12:23:21.064Z,97713.01
2022-08-17T12:25:52.873Z,97714.23
2022-08-17T12:28:29.842Z,97711.57
2022-08-17T12:31:02.901Z,97713.98
2022-08-17T12:33:30.153Z,97713.33
2022-08-17T12:36:05.844Z,97721.04
2022-08-17T12:38:34.892Z,97730.78
2022-08-17T12:43:20.787Z,97717.64
2022-08-17T12:45:57.439Z,97719.48
2022-08-17T12:48:26.427Z,97722.17
2022-08-17T12:51:03.129Z,97724.95
2022-08-17T12:53:31.485Z,97725.38
2022-08-17T12:55:59.673Z,97720.55
2022-08-17T12:58:31.807Z,97709.69
2022-08-17T13:01:04.542Z,97710.14
2022-08-17T13:03:38.672Z,97708.94
2022-08-17T13:06:08.188Z,97708.39
2022-08-17T13:08:43.596Z,97705.86
2022-08-17T13:11:19.596Z,97716.04
2022-08-17T13:13:55.493Z,97717.99
2022-08-17T13:16:27.543Z,97721.63
2022-08-17T13:18:59.845Z,97717.89
2022-08-17T13:21:30.676Z,97720.11
2022-08-17T13:24:01.339Z,97713.88
2022-08-17T13:26:36.333Z,97714.50
2022-08-17T13:29:27.034Z,97718.34
2022-08-17T13:31:58.879Z,97724.31
2022-08-17T13:35:13.082Z,97720.45
2022-08-17T13:37:34.782Z,97725.27
2022-08-17T13:40:11.432Z,97726.23
2022-08-17T13:42:52.770Z,97723.93
2022-08-17T13:45:39.596Z,97718.91
2022-08-17T13:48:13.743Z,97715.80
2022-08-17T13:50:56.846Z,97717.49
2022-08-17T13:53:50.909Z,97714.02
2022-08-17T13:56:37.558Z,97712.11
2022-08-17T13:59:10.642Z,97714.42
2022-08-17T14:01:53.371Z,97714.52
2022-08-17T14:04:28.904Z,97717.54
2022-08-17T14:07:19.813Z,97720.51
2022-08-17T14:09:55.105Z,97720.38
2022-08-17T14:12:25.276Z,97721.52
2022-08-17T14:14:55.218Z,97722.89
2022-08-17T14:17:25.311Z,97718.48
2022-08-17T14:19:55.124Z,97721.64
2022-08-17T14:22:28.516Z,97721.58
2022-08-17T14:24:57.678Z,97720.86
2022-08-17T14:27:28.450Z,97710.82
2022-08-17T14:29:56.129Z,97704.30
2022-08-17T14:32:30.457Z,97706.07
2022-08-17T14:34:59.830Z,97705.69
2022-08-17T14:37:28.239Z,97704.23
2022-08-17T14:40:04.827Z,97708.75
2022-08-17T14:42:33.330Z,97707.71
2022-08-17T14:45:00.727Z,97710.29
2022-08-17T14:47:27.995Z,97709.23
2022-08-17T14:49:55.222Z,97711.94
2022-08-17T14:52:22.476Z,97712.89
2022-08-17T14:54:53.009Z,97712.89
2022-08-17T14:57:34.187Z,97710.16
2022-08-17T15:00:02.046Z,97710.74
2022-08-17T15:02:30.938Z,97712.48
2022-08-17T15:04:59.936Z,97710.03
2022-08-17T15:07:30.345Z,97715.27
2022-08-17T15:10:03.345Z,97720.96
2022-08-17T15:12:34.050Z,97728.11
2022-08-17T15:15:04.690Z,97730.11
2022-08-17T15:17:45.168Z,97734.41
2022-08-17T15:20:21.045Z,97731.80
2022-08-17T15:22:55.665Z,97734.09
2022-08-17T15:25:24.514Z,97734.26
2022-08-17T15:27:53.957Z,97735.16
2022-08-17T15:30:26.375Z,97732.48
2022-08-17T15:32:56.947Z,97734.02
2022-08-17T15:35:27.572Z,97730.80
2022-08-17T15:37:58.275Z,97727.73
2022-08-17T15:40:28.123Z,97727.44
2022-08-17T15:42:55.474Z,97729.15
2022-08-17T15:45:27.036Z,97732.25
2022-08-17T15:47:54.281Z,97729.28
2022-08-17T15:50:21.532Z,97732.54
2022-08-17T15:52:55.042Z,97732.50
2022-08-17T15:55:24.236Z,97733.48
2022-08-17T15:57:52.402Z,97737.42
2022-08-17T16:00:20.308Z,97740.40
2022-08-17T16:03:45.451Z,97742.70
2022-08-17T16:05:36.003Z,97741.95
2022-08-17T16:08:04.865Z,97746.17
2022-08-17T16:10:35.746Z,97746.96
2022-08-17T16:13:03.932Z,97748.88
2022-08-17T16:15:33.612Z,97751.36
2022-08-17T16:18:00.842Z,97755.42
2022-08-17T16:20:28.082Z,97761.81
2022-08-17T16:22:55.919Z,97764.14
2022-08-17T16:25:50.318Z,97771.21
2022-08-17T16:28:18.208Z,97779.79
2022-08-17T16:30:45.816Z,97789.91
2022-08-17T16:33:13.014Z,97794.22
2022-08-17T16:35:42.352Z,97797.61
2022-08-17T16:38:09.980Z,97798.53
2022-08-17T16:40:37.576Z,97802.43
2022-08-17T16:43:10.773Z,97807.38
2022-08-17T16:45:40.948Z,97804.97
2022-08-17T16:48:09.151Z,97805.27
2022-08-17T16:50:36.764Z,97803.92
2022-08-17T16:53:06.771Z,97810.68
2022-08-17T16:55:35.916Z,97807.65
2022-08-17T16:58:04.790Z,97802.59
2022-08-17T17:00:33.660Z,97802.62
2022-08-17T17:03:19.743Z,97798.38
2022-08-17T17:06:15.422Z,97801.58
2022-08-17T17:08:57.493Z,97799.25
2022-08-17T17:11:33.965Z,97792.42
2022-08-17T17:14:04.071Z,97792.98
2022-08-17T17:16:45.943Z,97790.89
2022-08-17T17:19:34.519Z,97785.89
2022-08-17T17:22:15.491Z,97789.59
2022-08-17T17:25:01.694Z,97789.95
2022-08-17T17:27:43.382Z,97794.41
2022-08-17T17:30:40.862Z,97791.70
2022-08-17T17:33:37.586Z,97793.05
2022-08-17T17:36:15.085Z,97790.42
2022-08-17T17:38:47.997Z,97794.59
2022-08-17T17:41:26.113Z,97792.86
2022-08-17T17:44:12.375Z,97793.13
2022-08-17T17:46:44.038Z,97796.70
2022-08-17T17:49:14.453Z,97794.51
2022-08-17T17:52:10.125Z,97801.88
2022-08-17T17:54:52.886Z,97800.41
2022-08-17T17:57:56.181Z,97803.29
2022-08-17T18:00:25.078Z,97804.96
2022-08-17T18:03:17.691Z,97809.16
2022-08-17T18:05:52.382Z,97815.00
2022-08-17T18:08:34.146Z,97814.55
2022-08-17T18:11:24.359Z,97820.58
2022-08-17T18:14:04.298Z,97818.98
2022-08-17T18:16:33.165Z,97820.98
2022-08-17T18:19:00.326Z,97825.77
2022-08-17T18:21:38.470Z,97837.50
2022-08-17T18:24:07.719Z,97840.64
2022-08-17T18:26:35.489Z,97842.98
2022-08-17T18:29:21.919Z,97842.92
2022-08-17T18:31:49.138Z,97849.19
2022-08-17T18:37:12.952Z,97848.20
2022-08-17T18:39:44.260Z,97852.73
2022-08-17T18:42:31.005Z,97853.23
2022-08-17T18:44:58.383Z,97858.13
2022-08-17T18:47:27.234Z,97860.52
2022-08-17T18:49:59.730Z,97858.66
2022-08-17T18:52:31.891Z,97854.23
2022-08-17T18:55:11.450Z,97856.02
2022-08-17T18:57:47.703Z,97851.27
2022-08-17T19:00:40.739Z,97853.63
2022-08-17T19:03:18.230Z,97855.98
2022-08-17T19:05:46.604Z,97857.77
2022-08-17T19:08:34.966Z,97860.82
2022-08-17T19:11:17.988Z,97860.19
2022-08-17T19:13:54.601Z,97859.65
2022-08-17T19:16:38.500Z,97858.02
2022-08-17T19:19:10.080Z,97863.49
2022-08-17T19:21:59.291Z,97865.10
2022-08-17T19:24:27.951Z,97871.26
2022-08-17T19:27:14.918Z,97870.36
2022-08-17T19:29:55.609Z,97873.39
2022-08-17T19:32:26.204Z,97872.07
2022-08-17T19:34:53.515Z,97870.63
2022-08-17T19:37:47.447Z,97867.20
2022-08-17T19:40:54.682Z,97869.21
2022-08-17T19:43:48.697Z,97870.38
2022-08-17T19:47:10.526Z,97871.65
2022-08-17T19:49:52.839Z,97872.14
2022-08-17T19:52:46.816Z,97877.77
2022-08-17T19:55:48.478Z,97874.66
2022-08-17T19:58:35.525Z,97870.48
2022-08-17T20:01:02.781Z,97871.48
2022-08-17T20:03:49.759Z,97873.25
2022-08-17T20:06:17.015Z,97870.34
2022-08-17T20:09:12.967Z,97865.14
2022-08-17T20:11:47.383Z,97865.58
2022-08-17T20:14:20.710Z,97867.91
2022-08-17T20:16:49.130Z,97864.23
2022-08-17T20:19:38.223Z,97864.74
2022-08-17T20:22:08.414Z,97865.95
2022-08-17T20:24:40.413Z,97869.60
2022-08-17T20:27:31.721Z,97867.55
2022-08-17T20:30:11.225Z,97867.89
2022-08-17T20:32:55.996Z,97864.77
2022-08-17T20:35:53.661Z,97859.95
2022-08-17T20:38:57.365Z,97858.17
2022-08-17T20:41:30.867Z,97852.42
2022-08-17T20:43:58.740Z,97850.39
2022-08-17T20:46:38.586Z,97851.58
2022-08-17T20:49:08.956Z,97851.71
2022-08-17T20:52:01.382Z,97851.37
2022-08-17T20:54:29.233Z,97851.80
2022-08-17T20:56:58.019Z,97855.23
2022-08-17T20:59:30.596Z,97854.98
2022-08-17T21:02:17.723Z,97857.20
2022-08-17T21:04:56.827Z,97856.54
2022-08-17T21:07:33.068Z,97856.23
2022-08-17T21:10:11.813Z,97852.73
2022-08-17T21:13:08.555Z,97849.97
2022-08-17T21:15:57.021Z,97851.42
2022-08-17T21:19:03.408Z,97853.02
2022-08-17T21:21:49.367Z,97856.99
2022-08-17T21:24:35.461Z,97859.30
2022-08-17T21:27:09.469Z,97862.20
2022-08-17T21:29:40.318Z,97865.05
2022-08-17T21:32:09.593Z,97866.23
2022-08-17T21:34:44.278Z,97870.10
2022-08-17T21:43:45.510Z,97871.00
2022-08-17T21:46:47.113Z,97873.16
2022-08-17T21:49:19.398Z,97872.40
2022-08-17T21:52:03.978Z,97873.43
2022-08-17T21:54:44.652Z,97872.27
2022-08-17T21:57:22.761Z,97869.54
2022-08-17T21:59:55.378Z,97873.86
2022-08-17T22:02:29.764Z,97874.45
2022-08-17T22:04:59.118Z,97872.31
2022-08-17T22:07:44.183Z,97873.66
2022-08-17T22:10:33.235Z,97877.36
2022-08-17T22:13:17.066Z,97881.86
2022-08-17T22:15:50.568Z,97880.38
2022-08-17T22:18:25.705Z,97884.20
2022-08-17T22:20:56.101Z,97884.37
2022-08-17T22:23:43.751Z,97883.76
2022-08-17T22:26:13.478Z,97891.09
2022-08-17T22:28:42.428Z,97887.84
2022-08-17T22:31:14.496Z,97887.30
2022-08-17T22:33:47.501Z,97876.27
2022-08-17T22:36:34.626Z,97879.25
2022-08-17T22:39:02.765Z,97878.73
2022-08-17T22:41:34.790Z,97882.45
2022-08-17T22:44:26.146Z,97880.34
2022-08-17T22:47:03.025Z,97878.35
2022-08-17T22:49:58.192Z,97880.71
2022-08-17T22:52:32.568Z,97884.56
2022-08-17T22:55:25.922Z,97886.21
2022-08-17T22:58:11.818Z,97885.44
2022-08-17T23:00:40.211Z,97888.05
2022-08-17T23:03:12.329Z,97892.17
2022-08-17T23:05:42.218Z,97892.48
2022-08-17T23:08:11.674Z,97892.74
2022-08-17T23:10:41.568Z,97886.84
2022-08-17T23:13:12.173Z,97889.06
2022-08-17T23:15:40.860Z,97891.38
2022-08-17T23:18:08.369Z,97897.33
2022-08-17T23:20:39.645Z,97901.94
2022-08-17T23:23:09.370Z,97895.64
2022-08-17T23:25:36.973Z,97898.01
2022-08-17T23:28:05.658Z,97898.66
2022-08-17T23:30:35.420Z,97899.35
2022-08-17T23:33:05.913Z,97899.35
2022-08-17T23:35:39.845Z,97893.39
2022-08-17T23:38:10.437Z,97890.69
2022-08-17T23:40:39.582Z,97891.92
2022-08-17T23:43:23.623Z,97891.16
2022-08-17T23:45:53.933Z,97893.44
2022-08-17T23:48:35.227Z,97890.58
2022-08-17T23:51:10.466Z,97890.69
2022-08-17T23:53:37.802Z,97893.65
2022-08-17T23:56:10.260Z,97893.69
2022-08-17T23:58:42.490Z,97895.55
